createdAt,value
2019-01-24T00:00:17.637Z,-1.40
2019-01-24T00:02:40.045Z,-1.50
2019-01-24T00:05:01.248Z,-1.40
2019-01-24T00:07:22.446Z,-1.40
2019-01-24T00:09:43.679Z,-1.60
2019-01-24T00:12:04.893Z,-1.60
2019-01-24T00:14:26.096Z,-1.60
2019-01-24T00:16:47.399Z,-1.60
2019-01-24T00:19:08.612Z,-1.50
2019-01-24T00:21:29.930Z,-1.40
2019-01-24T00:23:51.140Z,-1.40
2019-01-24T00:26:12.568Z,-1.50
2019-01-24T00:28:34.793Z,-1.60
2019-01-24T00:30:55.990Z,-1.70
2019-01-24T00:33:17.181Z,-1.60
2019-01-24T00:35:39.674Z,-1.60
2019-01-24T00:38:00.923Z,-1.60
2019-01-24T00:40:22.107Z,-1.60
2019-01-24T00:42:43.319Z,-1.40
2019-01-24T00:45:06.439Z,-1.30
2019-01-24T00:47:27.683Z,-1.30
2019-01-24T00:49:48.864Z,-1.40
2019-01-24T00:52:10.068Z,-1.30
2019-01-24T00:54:31.278Z,-1.30
2019-01-24T00:56:52.474Z,-1.40
2019-01-24T00:59:13.686Z,-1.30
2019-01-24T01:01:34.873Z,-1.40
2019-01-24T01:03:56.428Z,-1.30
2019-01-24T01:06:17.722Z,-1.20
2019-01-24T01:08:38.928Z,-1.30
2019-01-24T01:11:00.302Z,-1.30
2019-01-24T01:13:21.512Z,-1.30
2019-01-24T01:15:42.702Z,-1.20
2019-01-24T01:18:03.980Z,-1.30
2019-01-24T01:20:25.162Z,-1.40
2019-01-24T01:22:46.361Z,-1.30
2019-01-24T01:25:09.877Z,-1.20
2019-01-24T01:27:31.070Z,-1.30
2019-01-24T01:29:52.289Z,-1.30
2019-01-24T01:32:13.482Z,-1.40
2019-01-24T01:34:36.367Z,-1.40
2019-01-24T01:36:57.817Z,-1.50
2019-01-24T01:39:19.014Z,-1.40
2019-01-24T01:41:40.228Z,-1.50
2019-01-24T01:44:01.435Z,-1.50
2019-01-24T01:46:22.635Z,-1.40
2019-01-24T01:48:43.838Z,-1.60
2019-01-24T01:51:05.034Z,-1.60
2019-01-24T01:53:26.222Z,-1.60
2019-01-24T01:55:47.451Z,-1.60
2019-01-24T01:58:28.614Z,-1.60
2019-01-24T02:00:49.818Z,-1.70
2019-01-24T02:03:11.019Z,-1.70
2019-01-24T02:05:32.223Z,-1.70
2019-01-24T02:07:53.434Z,-1.80
2019-01-24T02:10:17.053Z,-1.70
2019-01-24T02:12:38.263Z,-1.70
2019-01-24T02:14:59.490Z,-1.60
2019-01-24T02:17:20.724Z,-1.50
2019-01-24T02:19:42.028Z,-1.50
2019-01-24T02:22:03.255Z,-1.50
2019-01-24T02:24:24.458Z,-1.60
2019-01-24T02:26:45.668Z,-1.70
2019-01-24T02:29:07.138Z,-1.60
2019-01-24T02:31:28.457Z,-1.60
2019-01-24T02:33:49.658Z,-1.60
2019-01-24T02:36:10.870Z,-1.60
2019-01-24T02:38:32.071Z,-1.50
2019-01-24T02:40:53.305Z,-1.60
2019-01-24T02:43:14.499Z,-1.60
2019-01-24T02:45:35.921Z,-1.70
2019-01-24T02:47:57.123Z,-1.70
2019-01-24T02:50:20.607Z,-1.60
2019-01-24T02:52:41.936Z,-1.70
2019-01-24T02:55:23.037Z,-1.60
2019-01-24T02:57:44.250Z,-1.50
2019-01-24T03:00:11.917Z,-1.50
2019-01-24T03:02:33.127Z,-1.50
2019-01-24T03:04:57.072Z,-1.50
2019-01-24T03:07:17.458Z,-1.50
2019-01-24T03:09:38.744Z,-1.50
2019-01-24T03:11:59.963Z,-1.50
2019-01-24T03:14:21.168Z,-1.40
2019-01-24T03:16:42.390Z,-1.30
2019-01-24T03:19:03.654Z,-1.30
2019-01-24T03:21:24.866Z,-1.30
2019-01-24T03:23:46.049Z,-1.40
2019-01-24T03:26:07.271Z,-1.40
2019-01-24T03:28:28.459Z,-1.40
2019-01-24T03:30:49.669Z,-1.30
2019-01-24T03:33:11.954Z,-1.30
2019-01-24T03:35:33.177Z,-1.40
2019-01-24T03:37:54.357Z,-1.30
2019-01-24T03:40:15.613Z,-1.30
2019-01-24T03:42:36.885Z,-1.30
2019-01-24T03:44:58.085Z,-1.30
2019-01-24T03:47:19.282Z,-1.40
2019-01-24T03:49:40.513Z,-1.50
2019-01-24T03:52:01.778Z,-1.40
2019-01-24T03:54:22.968Z,-1.40
2019-01-24T03:56:44.177Z,-1.50
2019-01-24T03:59:05.394Z,-1.50
2019-01-24T04:01:26.592Z,-1.60
2019-01-24T04:03:47.807Z,-1.60
2019-01-24T04:06:09.012Z,-1.50
2019-01-24T04:08:30.205Z,-1.60
2019-01-24T04:10:51.420Z,-1.60
2019-01-24T04:13:12.618Z,-1.60
2019-01-24T04:15:33.924Z,-1.60
2019-01-24T04:17:55.123Z,-1.60
2019-01-24T04:20:16.317Z,-1.60
2019-01-24T04:22:37.542Z,-1.60
2019-01-24T04:24:58.812Z,-1.70
2019-01-24T04:27:20.034Z,-1.60
2019-01-24T04:29:41.218Z,-1.60
2019-01-24T04:32:02.442Z,-1.70
2019-01-24T04:34:23.704Z,-1.60
2019-01-24T04:36:44.924Z,-1.70
2019-01-24T04:39:06.227Z,-1.60
2019-01-24T04:41:27.428Z,-1.60
2019-01-24T04:43:48.616Z,-1.50
2019-01-24T04:46:09.850Z,-1.50
2019-01-24T04:48:31.055Z,-1.50
2019-01-24T04:50:52.969Z,-1.50
2019-01-24T04:53:14.343Z,-1.30
2019-01-24T04:55:35.568Z,-1.20
2019-01-24T04:57:56.896Z,-1.20
2019-01-24T05:00:20.694Z,-1.20
2019-01-24T05:02:42.016Z,-1.10
2019-01-24T05:05:03.537Z,-1.40
2019-01-24T05:07:25.136Z,-1.40
2019-01-24T05:09:46.500Z,-1.40
2019-01-24T05:12:07.715Z,-1.20
2019-01-24T05:14:28.914Z,-1.30
2019-01-24T05:16:50.203Z,-1.40
2019-01-24T05:19:11.424Z,-1.40
2019-01-24T05:21:33.669Z,-1.40
2019-01-24T05:23:54.975Z,-1.50
2019-01-24T05:26:16.227Z,-1.40
2019-01-24T05:28:37.584Z,-1.40
2019-01-24T05:30:58.892Z,-1.50
2019-01-24T05:33:20.236Z,-1.50
2019-01-24T05:35:41.439Z,-1.60
2019-01-24T05:38:02.742Z,-1.50
2019-01-24T05:40:24.151Z,-1.50
2019-01-24T05:42:45.482Z,-1.50
2019-01-24T05:45:12.145Z,-1.50
2019-01-24T05:47:33.472Z,-1.50
2019-01-24T05:49:54.776Z,-1.50
2019-01-24T05:52:19.771Z,-1.40
2019-01-24T05:54:39.114Z,-1.40
2019-01-24T05:57:00.358Z,-1.30
2019-01-24T05:59:21.558Z,-1.40
2019-01-24T06:01:43.370Z,-1.40
2019-01-24T06:04:05.888Z,-1.30
2019-01-24T06:06:27.098Z,-1.30
2019-01-24T06:08:48.307Z,-1.30
2019-01-24T06:11:09.495Z,-1.30
2019-01-24T06:13:30.709Z,-1.10
2019-01-24T06:15:51.918Z,-1.10
2019-01-24T06:18:13.168Z,-1.00
2019-01-24T06:20:34.369Z,-1.10
2019-01-24T06:22:55.568Z,-1.10
2019-01-24T06:25:16.790Z,-1.00
2019-01-24T06:27:38.120Z,-1.00
2019-01-24T06:29:59.320Z,-0.90
2019-01-24T06:32:20.813Z,-0.90
2019-01-24T06:34:42.021Z,-0.90
2019-01-24T06:37:03.244Z,-0.90
2019-01-24T06:39:24.450Z,-1.00
2019-01-24T06:41:45.654Z,-1.00
2019-01-24T06:44:06.893Z,-0.90
2019-01-24T06:46:28.227Z,-1.10
2019-01-24T06:48:49.446Z,-1.00
2019-01-24T06:51:10.647Z,-1.00
2019-01-24T06:53:31.860Z,-1.10
2019-01-24T06:55:53.067Z,-1.10
2019-01-24T06:58:14.280Z,-1.10
2019-01-24T07:00:35.472Z,-1.00
2019-01-24T07:02:56.710Z,-1.10
2019-01-24T07:05:18.024Z,-1.00
2019-01-24T07:07:39.339Z,-1.10
2019-01-24T07:10:04.024Z,-1.00
2019-01-24T07:12:25.258Z,-1.00
2019-01-24T07:14:46.526Z,-1.10
2019-01-24T07:17:07.734Z,-1.00
2019-01-24T07:19:28.941Z,-1.00
2019-01-24T07:21:50.135Z,-1.10
2019-01-24T07:24:11.358Z,-1.10
2019-01-24T07:26:32.566Z,-1.10
2019-01-24T07:28:53.766Z,-1.20
2019-01-24T07:31:14.961Z,-1.20
2019-01-24T07:33:36.171Z,-1.10
2019-01-24T07:36:02.142Z,-1.00
2019-01-24T07:38:20.516Z,-0.90
2019-01-24T07:40:41.716Z,-1.00
2019-01-24T07:43:03.011Z,-0.80
2019-01-24T07:45:27.388Z,-1.00
2019-01-24T07:47:48.679Z,-1.10
2019-01-24T07:50:11.899Z,-1.10
2019-01-24T07:52:33.094Z,-1.00
2019-01-24T07:54:54.303Z,-1.00
2019-01-24T07:57:15.867Z,-0.90
2019-01-24T07:59:37.085Z,-0.90
2019-01-24T08:01:58.300Z,-1.00
2019-01-24T08:04:19.526Z,-0.90
2019-01-24T08:06:40.718Z,-0.80
2019-01-24T08:09:03.723Z,-0.80
2019-01-24T08:11:24.927Z,-0.80
2019-01-24T08:13:46.154Z,-0.90
2019-01-24T08:16:07.328Z,-0.90
2019-01-24T08:18:28.535Z,-0.80
2019-01-24T08:20:49.777Z,-0.70
2019-01-24T08:23:11.030Z,-0.70
2019-01-24T08:25:32.231Z,-0.70
2019-01-24T08:27:53.446Z,-0.60
2019-01-24T08:30:21.479Z,-0.70
2019-01-24T08:32:42.670Z,-0.70
2019-01-24T08:35:05.698Z,-0.60
2019-01-24T08:37:26.905Z,-0.60
2019-01-24T08:39:48.113Z,-0.70
2019-01-24T08:42:09.365Z,-0.70
2019-01-24T08:44:30.574Z,-0.70
2019-01-24T08:46:51.807Z,-0.70
2019-01-24T08:49:13.027Z,-0.50
2019-01-24T08:51:34.228Z,-0.60
2019-01-24T08:53:55.431Z,-0.60
2019-01-24T08:56:16.641Z,-0.50
2019-01-24T08:58:37.838Z,-0.50
2019-01-24T09:00:59.056Z,-0.50
2019-01-24T09:03:20.313Z,-0.50
2019-01-24T09:05:41.522Z,-0.50
2019-01-24T09:08:03.407Z,-0.60
2019-01-24T09:10:30.050Z,-0.50
2019-01-24T09:12:51.232Z,-0.30
2019-01-24T09:15:12.512Z,-0.20
2019-01-24T09:17:33.726Z,-0.10
2019-01-24T09:19:54.915Z,-0.10
2019-01-24T09:22:16.123Z,-0.40
2019-01-24T09:24:37.322Z,-0.40
2019-01-24T09:26:58.523Z,-0.30
2019-01-24T09:29:19.719Z,-0.30
2019-01-24T09:31:40.988Z,-0.30
2019-01-24T09:34:02.238Z,-0.20
2019-01-24T09:36:29.098Z,-0.20
2019-01-24T09:38:46.545Z,0.00
2019-01-24T09:41:07.763Z,0.10
2019-01-24T09:43:28.970Z,-0.20
2019-01-24T09:45:50.173Z,0.00
2019-01-24T09:48:11.382Z,-0.10
2019-01-24T09:50:33.057Z,-0.20
2019-01-24T09:52:54.268Z,-0.20
2019-01-24T09:55:15.475Z,-0.20
2019-01-24T09:57:36.699Z,0.00
2019-01-24T09:59:57.896Z,0.00
2019-01-24T10:02:19.128Z,0.10
2019-01-24T10:04:40.350Z,-0.10
2019-01-24T10:07:01.577Z,-0.30
2019-01-24T10:09:24.152Z,-0.30
2019-01-24T10:11:45.369Z,-0.40
2019-01-24T10:14:06.577Z,-0.40
2019-01-24T10:16:27.800Z,-0.30
2019-01-24T10:18:49.044Z,-0.20
2019-01-24T10:21:10.254Z,0.00
2019-01-24T10:23:31.458Z,0.10
2019-01-24T10:25:52.650Z,0.20
2019-01-24T10:28:13.866Z,0.00
2019-01-24T10:30:35.126Z,-0.10
2019-01-24T10:32:57.339Z,0.00
2019-01-24T10:35:18.540Z,-0.10
2019-01-24T10:37:39.751Z,0.10
2019-01-24T10:40:01.161Z,0.10
2019-01-24T10:42:22.387Z,0.20
2019-01-24T10:44:43.632Z,0.30
2019-01-24T10:47:04.960Z,0.30
2019-01-24T10:49:26.153Z,0.10
2019-01-24T10:51:47.387Z,0.00
2019-01-24T10:54:08.590Z,0.20
2019-01-24T10:56:29.780Z,0.00
2019-01-24T10:58:51.013Z,0.00
2019-01-24T11:01:13.409Z,0.10
2019-01-24T11:03:34.623Z,0.10
2019-01-24T11:05:55.814Z,0.20
2019-01-24T11:08:17.031Z,0.30
2019-01-24T11:10:38.217Z,0.30
2019-01-24T11:12:59.425Z,0.10
2019-01-24T11:15:23.322Z,0.20
2019-01-24T11:17:44.802Z,0.10
2019-01-24T11:20:09.806Z,0.20
2019-01-24T11:22:31.025Z,0.10
2019-01-24T11:24:52.239Z,0.10
2019-01-24T11:27:13.851Z,0.20
2019-01-24T11:29:35.767Z,0.10
2019-01-24T11:31:57.039Z,0.00
2019-01-24T11:34:18.258Z,0.10
2019-01-24T11:36:39.489Z,0.20
2019-01-24T11:39:00.719Z,0.20
2019-01-24T11:41:21.944Z,0.10
2019-01-24T11:43:43.258Z,0.00
2019-01-24T11:46:04.461Z,0.10
2019-01-24T11:48:25.695Z,0.20
2019-01-24T11:50:46.910Z,0.30
2019-01-24T11:53:08.221Z,0.40
2019-01-24T11:55:29.427Z,0.40
2019-01-24T11:57:50.651Z,0.30
2019-01-24T12:00:22.200Z,0.20
2019-01-24T12:02:43.414Z,0.10
2019-01-24T12:05:08.405Z,0.20
2019-01-24T12:07:29.637Z,0.20
2019-01-24T12:09:50.827Z,0.20
2019-01-24T12:12:12.048Z,0.10
2019-01-24T12:14:33.256Z,0.10
2019-01-24T12:16:54.524Z,0.20
2019-01-24T12:19:15.749Z,0.00
2019-01-24T12:21:36.951Z,0.00
2019-01-24T12:23:58.196Z,0.20
2019-01-24T12:26:19.383Z,0.20
2019-01-24T12:28:40.608Z,0.20
2019-01-24T12:31:01.819Z,0.20
2019-01-24T12:33:23.485Z,0.40
2019-01-24T12:35:44.705Z,0.40
2019-01-24T12:38:05.922Z,0.50
2019-01-24T12:40:27.129Z,0.40
2019-01-24T12:42:48.350Z,0.30
2019-01-24T12:45:15.351Z,0.20
2019-01-24T12:47:36.894Z,0.20
2019-01-24T12:49:58.089Z,0.30
2019-01-24T12:52:19.292Z,0.30
2019-01-24T12:54:40.502Z,0.50
2019-01-24T12:57:01.795Z,0.50
2019-01-24T12:59:23.009Z,0.50
2019-01-24T13:01:44.235Z,0.60
2019-01-24T13:04:05.561Z,0.60
2019-01-24T13:06:26.778Z,0.50
2019-01-24T13:08:47.994Z,0.50
2019-01-24T13:11:09.205Z,0.30
2019-01-24T13:13:30.536Z,0.30
2019-01-24T13:15:51.712Z,0.30
2019-01-24T13:18:12.938Z,0.30
2019-01-24T13:20:34.131Z,0.20
2019-01-24T13:22:55.353Z,0.10
2019-01-24T13:25:22.665Z,0.20
2019-01-24T13:27:43.900Z,0.30
2019-01-24T13:30:11.332Z,0.40
2019-01-24T13:32:32.549Z,0.40
2019-01-24T13:34:53.752Z,0.40
2019-01-24T13:37:14.961Z,0.50
2019-01-24T13:39:36.170Z,0.30
2019-01-24T13:41:57.419Z,0.30
2019-01-24T13:44:20.287Z,0.30
2019-01-24T13:46:42.031Z,0.30
2019-01-24T13:49:03.239Z,0.30
2019-01-24T13:51:24.450Z,0.00
2019-01-24T13:53:45.657Z,-0.10
2019-01-24T13:56:06.875Z,-0.10
2019-01-24T13:58:28.085Z,0.00
2019-01-24T14:00:49.549Z,0.00
2019-01-24T14:03:17.451Z,-0.20
2019-01-24T14:05:38.691Z,-0.10
2019-01-24T14:07:59.905Z,0.00
2019-01-24T14:10:21.108Z,-0.10
2019-01-24T14:12:42.326Z,-0.10
2019-01-24T14:15:10.354Z,-0.20
2019-01-24T14:17:31.559Z,0.00
2019-01-24T14:19:52.770Z,-0.20
2019-01-24T14:22:13.964Z,-0.20
2019-01-24T14:24:35.207Z,-0.20
2019-01-24T14:26:56.433Z,-0.10
2019-01-24T14:29:17.687Z,-0.10
2019-01-24T14:31:38.902Z,0.00
2019-01-24T14:34:00.092Z,0.00
2019-01-24T14:36:25.314Z,-0.20
2019-01-24T14:38:44.394Z,-0.30
2019-01-24T14:41:05.602Z,-0.20
2019-01-24T14:43:26.810Z,-0.10
2019-01-24T14:45:48.039Z,-0.10
2019-01-24T14:48:09.313Z,-0.10
2019-01-24T14:50:30.536Z,-0.10
2019-01-24T14:52:51.831Z,-0.10
2019-01-24T14:55:13.036Z,0.00
2019-01-24T14:57:34.236Z,-0.10
2019-01-24T14:59:55.481Z,-0.10
2019-01-24T15:02:16.691Z,0.00
2019-01-24T15:04:37.915Z,0.00
2019-01-24T15:06:59.113Z,-0.10
2019-01-24T15:09:20.363Z,-0.10
2019-01-24T15:11:41.681Z,-0.10
2019-01-24T15:14:02.883Z,-0.10
2019-01-24T15:16:24.102Z,-0.20
2019-01-24T15:18:45.424Z,-0.10
2019-01-24T15:21:06.663Z,-0.10
2019-01-24T15:23:49.422Z,-0.10
2019-01-24T15:26:10.672Z,-0.10
2019-01-24T15:28:31.917Z,-0.20
2019-01-24T15:30:53.215Z,-0.10
2019-01-24T15:33:14.429Z,-0.20
2019-01-24T15:36:11.372Z,-0.20
2019-01-24T15:38:32.570Z,-0.30
2019-01-24T15:41:06.073Z,-0.30
2019-01-24T15:43:27.266Z,-0.20
2019-01-24T15:45:48.481Z,-0.30
2019-01-24T15:48:09.680Z,-0.40
2019-01-24T15:50:34.070Z,-0.40
2019-01-24T15:52:55.300Z,-0.30
2019-01-24T15:55:16.646Z,-0.40
2019-01-24T15:57:37.913Z,-0.40
2019-01-24T15:59:59.138Z,-0.40
2019-01-24T16:02:20.351Z,-0.30
2019-01-24T16:04:41.650Z,-0.30
2019-01-24T16:07:02.889Z,-0.20
2019-01-24T16:09:24.172Z,-0.30
2019-01-24T16:11:45.428Z,-0.20
2019-01-24T16:14:08.077Z,-0.30
2019-01-24T16:16:29.354Z,-0.30
2019-01-24T16:18:50.847Z,-0.30
2019-01-24T16:21:12.207Z,-0.40
2019-01-24T16:23:33.406Z,-0.30
2019-01-24T16:25:54.637Z,-0.20
2019-01-24T16:28:16.036Z,-0.30
2019-01-24T16:30:37.269Z,-0.30
2019-01-24T16:32:58.828Z,-0.40
2019-01-24T16:35:20.131Z,-0.30
2019-01-24T16:37:41.758Z,-0.30
2019-01-24T16:40:07.058Z,-0.30
2019-01-24T16:42:28.619Z,-0.30
2019-01-24T16:44:50.344Z,-0.30
2019-01-24T16:47:11.770Z,-0.40
2019-01-24T16:49:33.112Z,-0.40
2019-01-24T16:51:57.425Z,-0.50
2019-01-24T16:54:18.771Z,-0.40
2019-01-24T16:56:40.217Z,-0.40
2019-01-24T16:59:01.809Z,-0.50
2019-01-24T17:01:23.478Z,-0.40
2019-01-24T17:03:44.846Z,-0.40
2019-01-24T17:06:06.498Z,-0.50
2019-01-24T17:08:27.797Z,-0.60
2019-01-24T17:10:49.119Z,-0.70
2019-01-24T17:13:10.413Z,-0.60
2019-01-24T17:15:31.640Z,-0.70
2019-01-24T17:17:54.220Z,-0.80
2019-01-24T17:20:26.824Z,-0.90
2019-01-24T17:22:48.607Z,-0.90
2019-01-24T17:25:11.921Z,-1.10
2019-01-24T17:27:33.247Z,-1.10
2019-01-24T17:29:55.491Z,-1.00
2019-01-24T17:32:17.130Z,-1.00
2019-01-24T17:34:38.488Z,-1.10
2019-01-24T17:36:59.797Z,-1.10
2019-01-24T17:39:20.994Z,-1.10
2019-01-24T17:41:42.214Z,-1.10
2019-01-24T17:44:04.410Z,-1.20
2019-01-24T17:46:25.653Z,-1.20
2019-01-24T17:48:47.180Z,-1.20
2019-01-24T17:51:08.605Z,-1.20
2019-01-24T17:53:30.199Z,-1.20
2019-01-24T17:55:51.415Z,-1.20
2019-01-24T17:58:12.660Z,-1.20
2019-01-24T18:00:35.790Z,-1.20
2019-01-24T18:02:57.007Z,-1.30
2019-01-24T18:05:18.310Z,-1.30
2019-01-24T18:07:39.734Z,-1.40
2019-01-24T18:10:00.981Z,-1.40
2019-01-24T18:12:22.337Z,-1.40
2019-01-24T18:14:43.563Z,-1.30
2019-01-24T18:17:04.766Z,-1.20
2019-01-24T18:19:25.984Z,-1.30
2019-01-24T18:21:47.205Z,-1.10
2019-01-24T18:24:08.421Z,-1.20
2019-01-24T18:26:29.609Z,-1.20
2019-01-24T18:28:50.813Z,-1.20
2019-01-24T18:31:12.028Z,-1.10
2019-01-24T18:33:33.255Z,-1.00
2019-01-24T18:35:54.524Z,-0.90
2019-01-24T18:38:15.772Z,-0.90
2019-01-24T18:40:37.054Z,-1.00
2019-01-24T18:42:58.356Z,-1.10
2019-01-24T18:45:29.003Z,-1.20
2019-01-24T18:47:50.346Z,-1.20
2019-01-24T18:50:19.737Z,-1.10
2019-01-24T18:52:40.935Z,-1.00
2019-01-24T18:55:02.760Z,-1.10
2019-01-24T18:57:23.966Z,-1.10
2019-01-24T18:59:45.692Z,-1.20
2019-01-24T19:02:07.135Z,-1.20
2019-01-24T19:04:28.422Z,-1.20
2019-01-24T19:06:49.687Z,-1.20
2019-01-24T19:09:10.912Z,-1.20
2019-01-24T19:11:32.119Z,-1.20
2019-01-24T19:13:53.330Z,-1.20
2019-01-24T19:16:14.547Z,-1.30
2019-01-24T19:18:36.042Z,-1.30
2019-01-24T19:20:57.453Z,-1.20
2019-01-24T19:23:18.711Z,-1.20
2019-01-24T19:25:39.988Z,-1.30
2019-01-24T19:28:03.204Z,-1.20
2019-01-24T19:30:30.599Z,-1.10
2019-01-24T19:32:51.816Z,-1.10
2019-01-24T19:35:13.159Z,-0.90
2019-01-24T19:37:34.377Z,-0.90
2019-01-24T19:39:55.580Z,-0.90
2019-01-24T19:42:16.919Z,-0.90
2019-01-24T19:44:38.146Z,-1.00
2019-01-24T19:46:59.371Z,-1.10
2019-01-24T19:49:20.594Z,-1.00
2019-01-24T19:51:41.838Z,-1.10
2019-01-24T19:54:04.256Z,-1.00
2019-01-24T19:56:25.566Z,-1.00
2019-01-24T19:58:46.797Z,-0.90
2019-01-24T20:01:23.720Z,-0.90
2019-01-24T20:03:45.001Z,-1.00
2019-01-24T20:06:06.294Z,-1.00
2019-01-24T20:08:27.494Z,-1.00
2019-01-24T20:10:48.691Z,-1.00
2019-01-24T20:13:10.313Z,-1.00
2019-01-24T20:15:31.792Z,-1.00
2019-01-24T20:17:55.482Z,-0.90
2019-01-24T20:20:17.391Z,-0.90
2019-01-24T20:22:38.746Z,-0.90
2019-01-24T20:25:00.118Z,-0.90
2019-01-24T20:27:21.786Z,-0.90
2019-01-24T20:29:43.234Z,-0.90
2019-01-24T20:32:04.485Z,-0.90
2019-01-24T20:34:25.872Z,-0.90
2019-01-24T20:36:47.171Z,-0.90
2019-01-24T20:39:08.406Z,-0.90
2019-01-24T20:41:29.929Z,-0.90
2019-01-24T20:43:54.274Z,-0.90
2019-01-24T20:46:15.501Z,-0.90
2019-01-24T20:48:36.722Z,-0.80
2019-01-24T20:50:57.933Z,-0.80
2019-01-24T20:53:19.129Z,-0.90
2019-01-24T20:56:02.414Z,-0.80
2019-01-24T20:58:24.008Z,-0.90
2019-01-24T21:00:45.285Z,-0.90
2019-01-24T21:03:06.516Z,-0.90
2019-01-24T21:05:27.718Z,-0.90
2019-01-24T21:07:54.766Z,-0.90
2019-01-24T21:10:21.798Z,-0.90
2019-01-24T21:12:43.001Z,-0.80
2019-01-24T21:15:07.394Z,-0.90
2019-01-24T21:17:28.678Z,-0.90
2019-01-24T21:19:49.866Z,-0.80
2019-01-24T21:22:22.344Z,-0.80
2019-01-24T21:24:43.661Z,-0.80
2019-01-24T21:27:04.878Z,-0.80
2019-01-24T21:29:27.164Z,-0.80
2019-01-24T21:31:48.399Z,-0.80
2019-01-24T21:34:09.583Z,-0.80
2019-01-24T21:36:30.816Z,-0.70
2019-01-24T21:38:52.036Z,-0.70
2019-01-24T21:41:13.236Z,-0.70
2019-01-24T21:43:34.738Z,-0.50
2019-01-24T21:45:55.995Z,-0.50
2019-01-24T21:48:17.225Z,-0.60
2019-01-24T21:50:44.511Z,-0.80
2019-01-24T21:53:07.032Z,-0.80
2019-01-24T21:55:28.668Z,-0.80
2019-01-24T21:57:49.966Z,-0.80
2019-01-24T22:00:14.281Z,-0.80
2019-01-24T22:02:35.615Z,-0.90
2019-01-24T22:04:56.814Z,-0.90
2019-01-24T22:07:18.018Z,-0.90
2019-01-24T22:09:39.278Z,-0.90
2019-01-24T22:12:00.582Z,-0.90
2019-01-24T22:14:22.879Z,-0.90
2019-01-24T22:16:44.101Z,-0.90
2019-01-24T22:19:05.402Z,-0.90
2019-01-24T22:21:26.722Z,-0.90
2019-01-24T22:23:50.034Z,-0.90
2019-01-24T22:26:11.235Z,-0.90
2019-01-24T22:28:32.466Z,-0.90
2019-01-24T22:30:54.770Z,-1.00
2019-01-24T22:33:15.999Z,-0.90
2019-01-24T22:35:37.182Z,-1.00
2019-01-24T22:37:58.411Z,-1.00
2019-01-24T22:40:19.615Z,-1.00
2019-01-24T22:42:40.931Z,-1.00
2019-01-24T22:45:02.384Z,-0.90
2019-01-24T22:47:23.586Z,-0.90
2019-01-24T22:49:44.806Z,-0.90
2019-01-24T22:52:06.027Z,-0.90
2019-01-24T22:54:28.050Z,-0.90
2019-01-24T22:56:49.314Z,-0.80
2019-01-24T22:59:10.504Z,-0.80
2019-01-24T23:01:35.527Z,-0.80
2019-01-24T23:03:57.164Z,-0.80
2019-01-24T23:06:18.380Z,-0.90
2019-01-24T23:08:41.842Z,-0.80
2019-01-24T23:11:07.538Z,-0.80
2019-01-24T23:13:38.052Z,-0.80
2019-01-24T23:16:23.946Z,-0.90
2019-01-24T23:18:45.151Z,-0.90
2019-01-24T23:21:10.510Z,-0.90
2019-01-24T23:23:31.776Z,-1.00
2019-01-24T23:25:53.059Z,-0.90
2019-01-24T23:28:14.871Z,-0.90
2019-01-24T23:30:36.124Z,-0.90
2019-01-24T23:32:57.321Z,-0.90
2019-01-24T23:35:18.542Z,-1.00
2019-01-24T23:37:40.007Z,-1.00
2019-01-24T23:40:02.515Z,-1.00
2019-01-24T23:42:23.718Z,-1.00
2019-01-24T23:44:44.946Z,-1.10
2019-01-24T23:47:06.141Z,-1.10
2019-01-24T23:49:27.355Z,-1.10
2019-01-24T23:51:48.559Z,-1.10
2019-01-24T23:54:09.768Z,-1.30
2019-01-24T23:56:30.963Z,-1.30
2019-01-24T23:58:52.180Z,-1.40
